sensor_id;sensor_type;location;lat;lon;timestamp;pressure;altitude;pressure_sealevel;temperature;humidity
23281;BME280;11809;56.390;-3.266;2023-02-20T00:00:38;100375.00;;;15.73;54.73
23281;BME280;11809;56.390;-3.266;2023-02-20T00:03:06;100385.78;;;15.70;54.60
23281;BME280;11809;56.390;-3.266;2023-02-20T00:05:33;100384.19;;;15.68;54.59
23281;BME280;11809;56.390;-3.266;2023-02-20T00:08:01;100391.41;;;15.66;54.81
23281;BME280;11809;56.390;-3.266;2023-02-20T00:10:28;100404.63;;;15.66;54.84
23281;BME280;11809;56.390;-3.266;2023-02-20T00:12:55;100414.50;;;15.64;54.76
23281;BME280;11809;56.390;-3.266;2023-02-20T00:15:22;100406.53;;;15.64;54.89
23281;BME280;11809;56.390;-3.266;2023-02-20T00:17:49;100411.09;;;15.62;54.89
23281;BME280;11809;56.390;-3.266;2023-02-20T00:20:21;100402.38;;;15.60;55.08
23281;BME280;11809;56.390;-3.266;2023-02-20T00:22:49;100381.19;;;15.60;55.00
23281;BME280;11809;56.390;-3.266;2023-02-20T00:25:17;100380.44;;;15.58;54.95
23281;BME280;11809;56.390;-3.266;2023-02-20T00:27:45;100396.44;;;15.56;55.12
23281;BME280;11809;56.390;-3.266;2023-02-20T00:30:18;100391.25;;;15.55;54.96
23281;BME280;11809;56.390;-3.266;2023-02-20T00:32:47;100389.56;;;15.54;55.17
23281;BME280;11809;56.390;-3.266;2023-02-20T00:35:15;100386.06;;;15.53;55.13
23281;BME280;11809;56.390;-3.266;2023-02-20T00:37:42;100370.25;;;15.52;54.91
23281;BME280;11809;56.390;-3.266;2023-02-20T00:40:09;100359.66;;;15.52;55.27
23281;BME280;11809;56.390;-3.266;2023-02-20T00:42:37;100372.88;;;15.52;55.33
23281;BME280;11809;56.390;-3.266;2023-02-20T00:45:05;100375.53;;;15.52;55.36
23281;BME280;11809;56.390;-3.266;2023-02-20T00:47:32;100366.84;;;15.50;55.22
23281;BME280;11809;56.390;-3.266;2023-02-20T00:49:59;100368.56;;;15.51;55.17
23281;BME280;11809;56.390;-3.266;2023-02-20T00:52:26;100365.16;;;15.49;55.48
23281;BME280;11809;56.390;-3.266;2023-02-20T00:54:53;100367.81;;;15.49;55.47
23281;BME280;11809;56.390;-3.266;2023-02-20T00:57:19;100366.84;;;15.50;55.55
23281;BME280;11809;56.390;-3.266;2023-02-20T00:59:47;100366.19;;;15.46;55.28
23281;BME280;11809;56.390;-3.266;2023-02-20T01:02:14;100366.19;;;15.46;55.57
23281;BME280;11809;56.390;-3.266;2023-02-20T01:04:41;100355.59;;;15.46;55.51
23281;BME280;11809;56.390;-3.266;2023-02-20T01:07:08;100352.88;;;15.48;55.62
23281;BME280;11809;56.390;-3.266;2023-02-20T01:09:35;100357.59;;;15.43;55.54
23281;BME280;11809;56.390;-3.266;2023-02-20T01:12:02;100359.09;;;15.47;55.81
23281;BME280;11809;56.390;-3.266;2023-02-20T01:14:30;100361.75;;;15.47;55.42
23281;BME280;11809;56.390;-3.266;2023-02-20T01:16:57;100357.31;;;15.47;55.79
23281;BME280;11809;56.390;-3.266;2023-02-20T01:19:24;100346.03;;;15.44;55.44
23281;BME280;11809;56.390;-3.266;2023-02-20T01:21:51;100338.78;;;15.47;55.48
23281;BME280;11809;56.390;-3.266;2023-02-20T01:24:19;100336.97;;;15.48;55.67
23281;BME280;11809;56.390;-3.266;2023-02-20T01:26:47;100334.50;;;15.45;55.67
23281;BME280;11809;56.390;-3.266;2023-02-20T01:29:15;100323.03;;;15.44;55.66
23281;BME280;11809;56.390;-3.266;2023-02-20T01:31:50;100341.41;;;15.47;55.61
23281;BME280;11809;56.390;-3.266;2023-02-20T01:34:18;100328.28;;;15.46;55.68
23281;BME280;11809;56.390;-3.266;2023-02-20T01:36:47;100328.91;;;15.49;55.56
23281;BME280;11809;56.390;-3.266;2023-02-20T01:39:23;100317.50;;;15.49;55.80
23281;BME280;11809;56.390;-3.266;2023-02-20T01:41:56;100328.84;;;15.51;55.63
23281;BME280;11809;56.390;-3.266;2023-02-20T01:44:28;100309.63;;;15.47;55.56
23281;BME280;11809;56.390;-3.266;2023-02-20T01:47:17;100308.59;;;15.50;55.78
23281;BME280;11809;56.390;-3.266;2023-02-20T01:49:48;100301.38;;;15.52;55.71
23281;BME280;11809;56.390;-3.266;2023-02-20T01:52:30;100305.75;;;15.53;55.52
23281;BME280;11809;56.390;-3.266;2023-02-20T01:55:30;100297.78;;;15.53;55.57
23281;BME280;11809;56.390;-3.266;2023-02-20T01:58:09;100296.84;;;15.54;55.88
23281;BME280;11809;56.390;-3.266;2023-02-20T02:00:38;100295.88;;;15.55;55.62
23281;BME280;11809;56.390;-3.266;2023-02-20T02:03:14;100287.19;;;15.53;55.58
23281;BME280;11809;56.390;-3.266;2023-02-20T02:05:48;100297.59;;;15.56;55.59
23281;BME280;11809;56.390;-3.266;2023-02-20T02:08:17;100312.53;;;15.57;55.62
23281;BME280;11809;56.390;-3.266;2023-02-20T02:10:58;100308.84;;;15.59;55.67
23281;BME280;11809;56.390;-3.266;2023-02-20T02:13:31;100294.75;;;15.59;55.75
23281;BME280;11809;56.390;-3.266;2023-02-20T02:21:30;100293.59;;;15.63;55.63
23281;BME280;11809;56.390;-3.266;2023-02-20T02:44:02;100288.53;;;15.72;55.46
23281;BME280;11809;56.390;-3.266;2023-02-20T02:49:57;100297.03;;;15.77;55.57
23281;BME280;11809;56.390;-3.266;2023-02-20T02:52:25;100288.09;;;15.78;55.75
23281;BME280;11809;56.390;-3.266;2023-02-20T02:55:17;100285.56;;;15.77;55.61
23281;BME280;11809;56.390;-3.266;2023-02-20T02:57:45;100286.31;;;15.79;55.69
23281;BME280;11809;56.390;-3.266;2023-02-20T03:00:16;100281.00;;;15.79;55.51
23281;BME280;11809;56.390;-3.266;2023-02-20T03:05:26;100267.56;;;15.82;55.47
23281;BME280;11809;56.390;-3.266;2023-02-20T03:08:08;100280.81;;;15.82;55.70
23281;BME280;11809;56.390;-3.266;2023-02-20T03:10:42;100281.66;;;15.83;55.58
23281;BME280;11809;56.390;-3.266;2023-02-20T03:13:10;100277.94;;;15.85;55.60
23281;BME280;11809;56.390;-3.266;2023-02-20T03:15:41;100284.94;;;15.86;55.80
23281;BME280;11809;56.390;-3.266;2023-02-20T03:18:38;100271.81;;;15.85;55.62
23281;BME280;11809;56.390;-3.266;2023-02-20T03:21:18;100275.19;;;15.87;55.49
23281;BME280;11809;56.390;-3.266;2023-02-20T03:23:52;100283.91;;;15.89;55.58
23281;BME280;11809;56.390;-3.266;2023-02-20T03:26:25;100285.50;;;15.91;55.68
23281;BME280;11809;56.390;-3.266;2023-02-20T03:29:08;100288.97;;;15.92;55.79
23281;BME280;11809;56.390;-3.266;2023-02-20T03:31:52;100284.53;;;15.92;55.42
23281;BME280;11809;56.390;-3.266;2023-02-20T03:34:39;100279.03;;;15.95;55.31
23281;BME280;11809;56.390;-3.266;2023-02-20T03:37:29;100286.03;;;15.96;55.40
23281;BME280;11809;56.390;-3.266;2023-02-20T03:40:16;100272.00;;;15.94;55.60
23281;BME280;11809;56.390;-3.266;2023-02-20T03:43:10;100274.47;;;15.97;55.71
23281;BME280;11809;56.390;-3.266;2023-02-20T03:46:12;100279.88;;;15.96;55.52
23281;BME280;11809;56.390;-3.266;2023-02-20T03:49:03;100275.22;;;15.99;55.64
23281;BME280;11809;56.390;-3.266;2023-02-20T03:51:31;100271.59;;;16.00;55.66
23281;BME280;11809;56.390;-3.266;2023-02-20T03:53:59;100263.56;;;16.02;55.38
23281;BME280;11809;56.390;-3.266;2023-02-20T03:56:34;100276.69;;;16.03;55.55
23281;BME280;11809;56.390;-3.266;2023-02-20T04:01:55;100268.63;;;16.05;55.55
23281;BME280;11809;56.390;-3.266;2023-02-20T04:04:29;100262.31;;;16.07;55.42
23281;BME280;11809;56.390;-3.266;2023-02-20T04:06:59;100273.63;;;16.09;55.62
23281;BME280;11809;56.390;-3.266;2023-02-20T04:09:32;100279.69;;;16.11;55.60
23281;BME280;11809;56.390;-3.266;2023-02-20T04:12:31;100277.88;;;16.12;55.63
23281;BME280;11809;56.390;-3.266;2023-02-20T04:15:00;100268.88;;;16.14;55.50
23281;BME280;11809;56.390;-3.266;2023-02-20T04:17:31;100283.06;;;16.13;55.56
23281;BME280;11809;56.390;-3.266;2023-02-20T04:20:01;100283.91;;;16.14;55.65
23281;BME280;11809;56.390;-3.266;2023-02-20T04:22:31;100276.91;;;16.13;55.75
23281;BME280;11809;56.390;-3.266;2023-02-20T04:25:19;100279.47;;;16.14;55.58
23281;BME280;11809;56.390;-3.266;2023-02-20T04:27:50;100268.75;;;16.16;55.73
23281;BME280;11809;56.390;-3.266;2023-02-20T04:30:17;100273.97;;;16.17;55.58
23281;BME280;11809;56.390;-3.266;2023-02-20T04:32:44;100282.66;;;16.19;55.43
23281;BME280;11809;56.390;-3.266;2023-02-20T04:35:16;100277.34;;;16.19;55.43
23281;BME280;11809;56.390;-3.266;2023-02-20T04:37:43;100277.13;;;16.22;55.51
23281;BME280;11809;56.390;-3.266;2023-02-20T04:40:13;100277.00;;;16.24;55.35
23281;BME280;11809;56.390;-3.266;2023-02-20T04:42:40;100269.06;;;16.24;55.33
23281;BME280;11809;56.390;-3.266;2023-02-20T04:45:07;100268.00;;;16.26;55.39
23281;BME280;11809;56.390;-3.266;2023-02-20T04:47:34;100272.34;;;16.27;55.19
23281;BME280;11809;56.390;-3.266;2023-02-20T04:50:02;100261.63;;;16.29;55.20
23281;BME280;11809;56.390;-3.266;2023-02-20T04:52:29;100262.50;;;16.29;55.17
23281;BME280;11809;56.390;-3.266;2023-02-20T04:54:56;100253.59;;;16.30;55.23
23281;BME280;11809;56.390;-3.266;2023-02-20T04:57:23;100262.41;;;16.31;55.41
23281;BME280;11809;56.390;-3.266;2023-02-20T04:59:50;100258.03;;;16.30;55.36
23281;BME280;11809;56.390;-3.266;2023-02-20T05:02:17;100261.44;;;16.32;55.23
23281;BME280;11809;56.390;-3.266;2023-02-20T05:04:43;100251.66;;;16.32;55.34
23281;BME280;11809;56.390;-3.266;2023-02-20T05:07:10;100251.66;;;16.32;55.10
23281;BME280;11809;56.390;-3.266;2023-02-20T05:09:37;100255.06;;;16.34;55.12
23281;BME280;11809;56.390;-3.266;2023-02-20T05:12:04;100245.44;;;16.33;55.34
23281;BME280;11809;56.390;-3.266;2023-02-20T05:14:31;100257.81;;;16.33;55.35
23281;BME280;11809;56.390;-3.266;2023-02-20T05:16:58;100252.41;;;16.34;55.26
23281;BME280;11809;56.390;-3.266;2023-02-20T05:19:25;100247.88;;;16.36;55.30
23281;BME280;11809;56.390;-3.266;2023-02-20T05:21:52;100245.94;;;16.38;55.17
23281;BME280;11809;56.390;-3.266;2023-02-20T05:24:42;100230.03;;;16.38;55.35
23281;BME280;11809;56.390;-3.266;2023-02-20T05:27:09;100230.88;;;16.39;55.11
23281;BME280;11809;56.390;-3.266;2023-02-20T05:29:36;100236.19;;;16.39;55.39
23281;BME280;11809;56.390;-3.266;2023-02-20T05:32:03;100230.75;;;16.41;55.38
23281;BME280;11809;56.390;-3.266;2023-02-20T05:34:30;100208.25;;;16.46;55.23
23281;BME280;11809;56.390;-3.266;2023-02-20T05:36:56;100222.16;;;16.50;55.01
23281;BME280;11809;56.390;-3.266;2023-02-20T05:39:23;100234.06;;;16.57;54.93
23281;BME280;11809;56.390;-3.266;2023-02-20T05:41:50;100230.97;;;16.63;54.95
23281;BME280;11809;56.390;-3.266;2023-02-20T05:44:17;100238.47;;;16.69;54.89
23281;BME280;11809;56.390;-3.266;2023-02-20T05:46:44;100220.66;;;16.71;55.00
23281;BME280;11809;56.390;-3.266;2023-02-20T05:49:11;100249.50;;;16.75;54.88
23281;BME280;11809;56.390;-3.266;2023-02-20T05:51:38;100232.75;;;16.75;54.94
23281;BME280;11809;56.390;-3.266;2023-02-20T05:54:05;100238.38;;;16.70;55.54
23281;BME280;11809;56.390;-3.266;2023-02-20T05:56:32;100239.53;;;16.66;55.00
23281;BME280;11809;56.390;-3.266;2023-02-20T05:58:59;100244.75;;;16.68;55.60
23281;BME280;11809;56.390;-3.266;2023-02-20T06:01:29;100251.00;;;16.67;55.51
23281;BME280;11809;56.390;-3.266;2023-02-20T06:03:56;100256.09;;;16.70;55.62
23281;BME280;11809;56.390;-3.266;2023-02-20T06:06:31;100252.72;;;16.68;55.92
23281;BME280;11809;56.390;-3.266;2023-02-20T06:08:58;100240.06;;;16.71;55.18
23281;BME280;11809;56.390;-3.266;2023-02-20T06:11:25;100251.94;;;16.78;55.73
23281;BME280;11809;56.390;-3.266;2023-02-20T06:13:52;100243.34;;;16.75;55.74
23281;BME280;11809;56.390;-3.266;2023-02-20T06:16:23;100266.06;;;16.79;55.49
23281;BME280;11809;56.390;-3.266;2023-02-20T06:18:51;100253.75;;;16.78;55.67
23281;BME280;11809;56.390;-3.266;2023-02-20T06:21:19;100259.69;;;16.81;55.73
23281;BME280;11809;56.390;-3.266;2023-02-20T06:23:50;100269.84;;;16.87;55.72
23281;BME280;11809;56.390;-3.266;2023-02-20T06:26:18;100261.56;;;16.92;55.45
23281;BME280;11809;56.390;-3.266;2023-02-20T06:28:45;100275.38;;;16.97;55.24
23281;BME280;11809;56.390;-3.266;2023-02-20T06:31:23;100273.31;;;17.01;55.65
23281;BME280;11809;56.390;-3.266;2023-02-20T06:33:51;100286.50;;;17.02;55.75
23281;BME280;11809;56.390;-3.266;2023-02-20T06:36:23;100285.75;;;17.00;55.96
23281;BME280;11809;56.390;-3.266;2023-02-20T06:38:51;100292.66;;;17.03;56.11
23281;BME280;11809;56.390;-3.266;2023-02-20T06:41:18;100290.00;;;17.03;56.04
23281;BME280;11809;56.390;-3.266;2023-02-20T06:43:44;100294.25;;;17.05;55.27
23281;BME280;11809;56.390;-3.266;2023-02-20T06:46:11;100294.03;;;17.08;55.50
23281;BME280;11809;56.390;-3.266;2023-02-20T06:48:43;100313.34;;;17.10;55.40
23281;BME280;11809;56.390;-3.266;2023-02-20T06:51:10;100304.41;;;17.11;55.37
23281;BME280;11809;56.390;-3.266;2023-02-20T06:53:37;100324.59;;;17.14;55.81
23281;BME280;11809;56.390;-3.266;2023-02-20T06:56:09;100325.41;;;17.14;55.93
23281;BME280;11809;56.390;-3.266;2023-02-20T06:58:37;100318.44;;;17.13;55.83
23281;BME280;11809;56.390;-3.266;2023-02-20T07:01:04;100329.28;;;17.10;55.94
23281;BME280;11809;56.390;-3.266;2023-02-20T07:03:31;100322.75;;;17.14;55.32
23281;BME280;11809;56.390;-3.266;2023-02-20T07:05:58;100323.53;;;17.16;55.31
23281;BME280;11809;56.390;-3.266;2023-02-20T07:08:25;100335.81;;;17.17;55.18
23281;BME280;11809;56.390;-3.266;2023-02-20T07:10:52;100340.91;;;17.20;55.18
23281;BME280;11809;56.390;-3.266;2023-02-20T07:13:21;100345.16;;;17.23;54.94
23281;BME280;11809;56.390;-3.266;2023-02-20T07:15:48;100339.75;;;17.24;54.83
23281;BME280;11809;56.390;-3.266;2023-02-20T07:18:15;100340.69;;;17.23;54.86
23281;BME280;11809;56.390;-3.266;2023-02-20T07:20:43;100348.53;;;17.25;55.28
23281;BME280;11809;56.390;-3.266;2023-02-20T07:23:10;100336.84;;;17.27;55.30
23281;BME280;11809;56.390;-3.266;2023-02-20T07:25:37;100343.56;;;17.20;55.11
23281;BME280;11809;56.390;-3.266;2023-02-20T07:28:04;100344.91;;;17.02;55.01
23281;BME280;11809;56.390;-3.266;2023-02-20T07:30:34;100343.75;;;16.93;55.30
23281;BME280;11809;56.390;-3.266;2023-02-20T07:33:01;100354.69;;;16.89;55.98
23281;BME280;11809;56.390;-3.266;2023-02-20T07:35:27;100355.03;;;16.84;56.44
23281;BME280;11809;56.390;-3.266;2023-02-20T07:37:54;100359.06;;;16.77;56.80
23281;BME280;11809;56.390;-3.266;2023-02-20T07:40:21;100357.38;;;16.76;57.49
23281;BME280;11809;56.390;-3.266;2023-02-20T07:42:48;100360.03;;;16.76;57.34
23281;BME280;11809;56.390;-3.266;2023-02-20T07:45:15;100362.13;;;16.71;57.11
23281;BME280;11809;56.390;-3.266;2023-02-20T07:47:42;100367.56;;;16.70;57.54
23281;BME280;11809;56.390;-3.266;2023-02-20T07:50:09;100380.94;;;16.68;57.37
23281;BME280;11809;56.390;-3.266;2023-02-20T07:52:36;100381.16;;;16.65;57.66
23281;BME280;11809;56.390;-3.266;2023-02-20T07:55:04;100379.44;;;16.64;57.54
23281;BME280;11809;56.390;-3.266;2023-02-20T07:57:33;100376.91;;;16.63;57.51
23281;BME280;11809;56.390;-3.266;2023-02-20T08:00:01;100387.59;;;16.61;57.79
23281;BME280;11809;56.390;-3.266;2023-02-20T08:02:28;100388.66;;;16.59;57.58
23281;BME280;11809;56.390;-3.266;2023-02-20T08:04:55;100406.28;;;16.60;57.61
23281;BME280;11809;56.390;-3.266;2023-02-20T08:07:22;100403.84;;;16.57;57.70
23281;BME280;11809;56.390;-3.266;2023-02-20T08:09:49;100407.34;;;16.57;57.62
23281;BME280;11809;56.390;-3.266;2023-02-20T08:12:16;100409.16;;;16.57;57.85
23281;BME280;11809;56.390;-3.266;2023-02-20T08:14:43;100410.94;;;16.56;57.67
23281;BME280;11809;56.390;-3.266;2023-02-20T08:17:10;100405.09;;;16.51;57.70
23281;BME280;11809;56.390;-3.266;2023-02-20T08:19:37;100411.06;;;16.55;57.72
23281;BME280;11809;56.390;-3.266;2023-02-20T08:22:04;100419.03;;;16.55;57.71
23281;BME280;11809;56.390;-3.266;2023-02-20T08:24:31;100424.22;;;16.56;57.89
23281;BME280;11809;56.390;-3.266;2023-02-20T08:26:58;100427.00;;;16.55;57.85
23281;BME280;11809;56.390;-3.266;2023-02-20T08:29:25;100428.88;;;16.53;57.92
23281;BME280;11809;56.390;-3.266;2023-02-20T08:31:52;100428.22;;;16.49;58.46
23281;BME280;11809;56.390;-3.266;2023-02-20T08:34:20;100436.25;;;16.48;57.97
23281;BME280;11809;56.390;-3.266;2023-02-20T08:36:47;100435.31;;;16.49;57.96
23281;BME280;11809;56.390;-3.266;2023-02-20T08:39:14;100429.28;;;16.47;58.10
23281;BME280;11809;56.390;-3.266;2023-02-20T08:41:45;100433.59;;;16.48;57.93
23281;BME280;11809;56.390;-3.266;2023-02-20T08:44:13;100444.22;;;16.48;57.95
23281;BME280;11809;56.390;-3.266;2023-02-20T08:46:48;100457.59;;;16.46;57.88
23281;BME280;11809;56.390;-3.266;2023-02-20T08:49:16;100457.41;;;16.49;58.04
23281;BME280;11809;56.390;-3.266;2023-02-20T08:51:51;100465.56;;;16.46;58.04
23281;BME280;11809;56.390;-3.266;2023-02-20T08:54:18;100456.88;;;16.44;57.95
23281;BME280;11809;56.390;-3.266;2023-02-20T08:56:45;100470.13;;;16.44;58.12
23281;BME280;11809;56.390;-3.266;2023-02-20T08:59:12;100470.97;;;16.45;58.08
23281;BME280;11809;56.390;-3.266;2023-02-20T09:01:42;100474.56;;;16.44;58.19
23281;BME280;11809;56.390;-3.266;2023-02-20T09:04:10;100482.53;;;16.44;58.06
23281;BME280;11809;56.390;-3.266;2023-02-20T09:06:37;100487.84;;;16.44;58.19
23281;BME280;11809;56.390;-3.266;2023-02-20T09:09:04;100483.47;;;16.43;58.07
23281;BME280;11809;56.390;-3.266;2023-02-20T09:11:31;100492.28;;;16.43;58.07
23281;BME280;11809;56.390;-3.266;2023-02-20T09:13:58;100500.16;;;16.45;58.07
23281;BME280;11809;56.390;-3.266;2023-02-20T09:16:25;100502.03;;;16.43;58.07
23281;BME280;11809;56.390;-3.266;2023-02-20T09:18:53;100500.34;;;16.42;58.02
23281;BME280;11809;56.390;-3.266;2023-02-20T09:21:23;100504.81;;;16.41;58.01
23281;BME280;11809;56.390;-3.266;2023-02-20T09:23:50;100504.81;;;16.41;58.08
23281;BME280;11809;56.390;-3.266;2023-02-20T09:26:16;100509.25;;;16.41;58.12
23281;BME280;11809;56.390;-3.266;2023-02-20T09:28:44;100508.41;;;16.40;58.18
23281;BME280;11809;56.390;-3.266;2023-02-20T09:31:11;100510.31;;;16.38;58.14
23281;BME280;11809;56.390;-3.266;2023-02-20T09:33:38;100516.28;;;16.42;58.05
23281;BME280;11809;56.390;-3.266;2023-02-20T09:36:05;100521.66;;;16.40;58.20
23281;BME280;11809;56.390;-3.266;2023-02-20T09:38:32;100523.44;;;16.39;58.18
23281;BME280;11809;56.390;-3.266;2023-02-20T09:40:59;100518.38;;;16.36;58.20
23281;BME280;11809;56.390;-3.266;2023-02-20T09:46:11;100531.53;;;16.38;58.10
23281;BME280;11809;56.390;-3.266;2023-02-20T09:51:44;100521.78;;;16.38;58.17
23281;BME280;11809;56.390;-3.266;2023-02-20T09:54:26;100523.69;;;16.36;58.15
23281;BME280;11809;56.390;-3.266;2023-02-20T09:56:58;100528.88;;;16.38;58.12
23281;BME280;11809;56.390;-3.266;2023-02-20T10:02:22;100535.03;;;16.38;58.15
23281;BME280;11809;56.390;-3.266;2023-02-20T10:04:54;100525.56;;;16.34;58.19
23281;BME280;11809;56.390;-3.266;2023-02-20T10:09:59;100539.59;;;16.36;58.23
23281;BME280;11809;56.390;-3.266;2023-02-20T10:12:44;100540.53;;;16.35;58.20
23281;BME280;11809;56.390;-3.266;2023-02-20T10:18:22;100549.34;;;16.36;58.12
23281;BME280;11809;56.390;-3.266;2023-02-20T10:20:57;100553.78;;;16.35;58.09
23281;BME280;11809;56.390;-3.266;2023-02-20T10:26:21;100571.63;;;16.33;58.08
23281;BME280;11809;56.390;-3.266;2023-02-20T10:28:51;100563.56;;;16.35;58.05
23281;BME280;11809;56.390;-3.266;2023-02-20T10:32:20;100575.09;;;16.34;57.99
23281;BME280;11809;56.390;-3.266;2023-02-20T10:34:29;100576.16;;;16.31;58.27
23281;BME280;11809;56.390;-3.266;2023-02-20T10:37:07;100584.09;;;16.31;58.34
23281;BME280;11809;56.390;-3.266;2023-02-20T10:39:40;100587.53;;;16.33;58.28
23281;BME280;11809;56.390;-3.266;2023-02-20T10:42:16;100580.50;;;16.32;58.37
23281;BME280;11809;56.390;-3.266;2023-02-20T10:48:05;100591.13;;;16.32;58.34
23281;BME280;11809;56.390;-3.266;2023-02-20T10:56:02;100598.13;;;16.33;58.18
23281;BME280;11809;56.390;-3.266;2023-02-20T10:58:36;100599.06;;;16.32;58.25
23281;BME280;11809;56.390;-3.266;2023-02-20T11:01:09;100605.13;;;16.34;58.08
23281;BME280;11809;56.390;-3.266;2023-02-20T11:03:57;100601.63;;;16.34;58.26
23281;BME280;11809;56.390;-3.266;2023-02-20T11:06:49;100605.91;;;16.36;58.15
23281;BME280;11809;56.390;-3.266;2023-02-20T11:09:18;100610.34;;;16.36;58.20
23281;BME280;11809;56.390;-3.266;2023-02-20T11:11:46;100613.00;;;16.36;58.44
23281;BME280;11809;56.390;-3.266;2023-02-20T11:14:18;100617.16;;;16.40;58.26
23281;BME280;11809;56.390;-3.266;2023-02-20T11:17:04;100617.25;;;16.38;58.21
23281;BME280;11809;56.390;-3.266;2023-02-20T11:19:39;100627.00;;;16.38;58.27
23281;BME280;11809;56.390;-3.266;2023-02-20T11:22:08;100629.78;;;16.36;58.33
23281;BME280;11809;56.390;-3.266;2023-02-20T11:24:39;100629.97;;;16.33;58.38
23281;BME280;11809;56.390;-3.266;2023-02-20T11:27:20;100634.22;;;16.36;58.31
23281;BME280;11809;56.390;-3.266;2023-02-20T11:30:02;100636.00;;;16.35;58.30
23281;BME280;11809;56.390;-3.266;2023-02-20T11:32:37;100646.69;;;16.34;58.36
23281;BME280;11809;56.390;-3.266;2023-02-20T11:35:21;100639.59;;;16.34;58.37
23281;BME280;11809;56.390;-3.266;2023-02-20T11:38:15;100653.84;;;16.33;58.31
23281;BME280;11809;56.390;-3.266;2023-02-20T11:40:37;100656.50;;;16.33;58.38
23281;BME280;11809;56.390;-3.266;2023-02-20T11:43:23;100637.16;;;16.31;58.27
23281;BME280;11809;56.390;-3.266;2023-02-20T11:46:17;100645.22;;;16.30;58.44
23281;BME280;11809;56.390;-3.266;2023-02-20T11:51:36;100656.69;;;16.30;58.21
23281;BME280;11809;56.390;-3.266;2023-02-20T11:54:08;100665.56;;;16.29;58.46
23281;BME280;11809;56.390;-3.266;2023-02-20T11:56:36;100662.91;;;16.29;58.32
23281;BME280;11809;56.390;-3.266;2023-02-20T11:59:28;100667.28;;;16.30;58.38
23281;BME280;11809;56.390;-3.266;2023-02-20T12:07:35;100669.06;;;16.30;58.45
23281;BME280;11809;56.390;-3.266;2023-02-20T12:12:49;100677.88;;;16.30;58.37
23281;BME280;11809;56.390;-3.266;2023-02-20T12:15:19;100669.94;;;16.30;58.44
23281;BME280;11809;56.390;-3.266;2023-02-20T12:21:22;100672.59;;;16.30;58.36
23281;BME280;11809;56.390;-3.266;2023-02-20T12:27:13;100678.94;;;16.28;58.27
23281;BME280;11809;56.390;-3.266;2023-02-20T12:29:46;100683.28;;;16.29;58.21
23281;BME280;11809;56.390;-3.266;2023-02-20T12:32:29;100685.94;;;16.29;58.49
23281;BME280;11809;56.390;-3.266;2023-02-20T12:45:23;100688.69;;;16.27;58.46
23281;BME280;11809;56.390;-3.266;2023-02-20T12:51:06;100695.72;;;16.28;58.18
23281;BME280;11809;56.390;-3.266;2023-02-20T12:53:47;100684.88;;;16.31;58.46
23281;BME280;11809;56.390;-3.266;2023-02-20T13:02:36;100687.75;;;16.28;58.27
23281;BME280;11809;56.390;-3.266;2023-02-20T13:05:11;100697.50;;;16.28;58.43
23281;BME280;11809;56.390;-3.266;2023-02-20T13:07:51;100701.09;;;16.27;58.31
23281;BME280;11809;56.390;-3.266;2023-02-20T13:10:32;100700.16;;;16.28;58.46
23281;BME280;11809;56.390;-3.266;2023-02-20T13:13:00;100714.28;;;16.28;58.38
23281;BME280;11809;56.390;-3.266;2023-02-20T13:15:42;100702.69;;;16.29;58.46
23281;BME280;11809;56.390;-3.266;2023-02-20T13:20:57;100718.59;;;16.29;58.42
23281;BME280;11809;56.390;-3.266;2023-02-20T13:23:31;100719.47;;;16.30;58.38
23281;BME280;11809;56.390;-3.266;2023-02-20T13:25:58;100731.13;;;16.27;58.29
23281;BME280;11809;56.390;-3.266;2023-02-20T13:28:32;100734.53;;;16.29;58.37
23281;BME280;11809;56.390;-3.266;2023-02-20T13:31:20;100743.34;;;16.30;58.29
23281;BME280;11809;56.390;-3.266;2023-02-20T13:33:50;100727.53;;;16.28;58.28
23281;BME280;11809;56.390;-3.266;2023-02-20T13:36:40;100744.28;;;16.29;58.33
23281;BME280;11809;56.390;-3.266;2023-02-20T13:49:55;100729.59;;;16.23;58.72
23281;BME280;11809;56.390;-3.266;2023-02-20T13:52:43;100736.53;;;16.26;58.59
23281;BME280;11809;56.390;-3.266;2023-02-20T13:58:03;100733.88;;;16.26;58.54
23281;BME280;11809;56.390;-3.266;2023-02-20T14:00:48;100736.31;;;16.29;58.55
23281;BME280;11809;56.390;-3.266;2023-02-20T14:03:24;100741.53;;;16.30;58.63
23281;BME280;11809;56.390;-3.266;2023-02-20T14:06:10;100744.75;;;16.35;57.99
23281;BME280;11809;56.390;-3.266;2023-02-20T14:08:41;100737.84;;;16.33;57.77
23281;BME280;11809;56.390;-3.266;2023-02-20T14:11:11;100742.66;;;16.41;57.41
23281;BME280;11809;56.390;-3.266;2023-02-20T14:13:40;100746.84;;;16.45;57.33
23281;BME280;11809;56.390;-3.266;2023-02-20T14:16:29;100747.03;;;16.42;57.29
23281;BME280;11809;56.390;-3.266;2023-02-20T14:19:20;100745.41;;;16.25;57.10
23281;BME280;11809;56.390;-3.266;2023-02-20T14:21:48;100741.63;;;16.15;57.34
23281;BME280;11809;56.390;-3.266;2023-02-20T14:26:48;100746.81;;;16.02;57.28
23281;BME280;11809;56.390;-3.266;2023-02-20T14:29:27;100748.25;;;16.08;57.44
23281;BME280;11809;56.390;-3.266;2023-02-20T14:31:56;100745.72;;;16.20;57.70
23281;BME280;11809;56.390;-3.266;2023-02-20T14:34:33;100743.16;;;16.33;57.20
23281;BME280;11809;56.390;-3.266;2023-02-20T14:37:15;100746.84;;;16.45;57.24
23281;BME280;11809;56.390;-3.266;2023-02-20T14:40:08;100753.31;;;16.55;56.96
23281;BME280;11809;56.390;-3.266;2023-02-20T14:42:43;100748.56;;;16.60;56.96
23281;BME280;11809;56.390;-3.266;2023-02-20T14:45:14;100751.78;;;16.65;56.80
23281;BME280;11809;56.390;-3.266;2023-02-20T14:47:56;100752.50;;;16.67;57.13
23281;BME280;11809;56.390;-3.266;2023-02-20T14:50:33;100748.38;;;16.63;56.59
23281;BME280;11809;56.390;-3.266;2023-02-20T14:53:17;100749.09;;;16.51;55.91
23281;BME280;11809;56.390;-3.266;2023-02-20T14:55:44;100751.38;;;16.43;55.83
23281;BME280;11809;56.390;-3.266;2023-02-20T14:58:18;100755.94;;;16.41;55.73
23281;BME280;11809;56.390;-3.266;2023-02-20T15:00:46;100758.59;;;16.41;55.60